sensor_id;sensor_type;location;lat;lon;timestamp;P1;durP1;ratioP1;P2;durP2;ratioP2
74168;SDS011;62523;53.336;83.690;2024-02-28T00:00:33;68.82;;;35.67;;
74168;SDS011;62523;53.336;83.690;2024-02-28T00:05:34;53.20;;;27.90;;
74168;SDS011;62523;53.336;83.690;2024-02-28T00:10:35;65.77;;;29.47;;
74168;SDS011;62523;53.336;83.690;2024-02-28T00:15:36;73.77;;;34.17;;
74168;SDS011;62523;53.336;83.690;2024-02-28T00:20:37;95.23;;;37.23;;
74168;SDS011;62523;53.336;83.690;2024-02-28T00:25:39;67.22;;;31.15;;
74168;SDS011;62523;53.336;83.690;2024-02-28T00:30:40;73.80;;;34.17;;
74168;SDS011;62523;53.336;83.690;2024-02-28T00:35:42;65.07;;;32.00;;
74168;SDS011;62523;53.336;83.690;2024-02-28T00:40:43;42.13;;;21.67;;
74168;SDS011;62523;53.336;83.690;2024-02-28T00:45:44;60.70;;;23.48;;
74168;SDS011;62523;53.336;83.690;2024-02-28T00:50:45;79.57;;;27.53;;
74168;SDS011;62523;53.336;83.690;2024-02-28T00:55:46;45.83;;;15.93;;
74168;SDS011;62523;53.336;83.690;2024-02-28T01:00:47;48.27;;;18.03;;
74168;SDS011;62523;53.336;83.690;2024-02-28T01:05:49;36.57;;;15.87;;
74168;SDS011;62523;53.336;83.690;2024-02-28T01:15:51;37.92;;;14.57;;
74168;SDS011;62523;53.336;83.690;2024-02-28T01:20:53;32.07;;;12.97;;
74168;SDS011;62523;53.336;83.690;2024-02-28T01:25:54;40.03;;;14.47;;
74168;SDS011;62523;53.336;83.690;2024-02-28T01:30:55;17.43;;;11.97;;
74168;SDS011;62523;53.336;83.690;2024-02-28T01:35:56;37.37;;;14.13;;
74168;SDS011;62523;53.336;83.690;2024-02-28T01:41:07;40.58;;;18.42;;
74168;SDS011;62523;53.336;83.690;2024-02-28T01:51:26;30.08;;;13.15;;
74168;SDS011;62523;53.336;83.690;2024-02-28T01:56:30;38.72;;;12.95;;
74168;SDS011;62523;53.336;83.690;2024-02-28T02:01:31;20.60;;;12.20;;
74168;SDS011;62523;53.336;83.690;2024-02-28T02:06:32;26.77;;;12.90;;
74168;SDS011;62523;53.336;83.690;2024-02-28T02:11:34;34.78;;;12.35;;
74168;SDS011;62523;53.336;83.690;2024-02-28T02:16:36;24.45;;;11.32;;
74168;SDS011;62523;53.336;83.690;2024-02-28T02:21:41;24.07;;;10.93;;
74168;SDS011;62523;53.336;83.690;2024-02-28T02:26:44;33.25;;;14.20;;
74168;SDS011;62523;53.336;83.690;2024-02-28T02:31:47;39.28;;;12.43;;
74168;SDS011;62523;53.336;83.690;2024-02-28T02:36:48;26.23;;;10.83;;
74168;SDS011;62523;53.336;83.690;2024-02-28T02:41:49;30.27;;;13.53;;
74168;SDS011;62523;53.336;83.690;2024-02-28T02:46:50;28.27;;;13.60;;
74168;SDS011;62523;53.336;83.690;2024-02-28T02:51:52;27.57;;;11.97;;
74168;SDS011;62523;53.336;83.690;2024-02-28T02:56:53;25.93;;;10.93;;
74168;SDS011;62523;53.336;83.690;2024-02-28T03:01:54;29.37;;;11.57;;
74168;SDS011;62523;53.336;83.690;2024-02-28T03:06:55;24.83;;;12.10;;
74168;SDS011;62523;53.336;83.690;2024-02-28T03:11:56;27.37;;;12.83;;
74168;SDS011;62523;53.336;83.690;2024-02-28T03:16:57;30.80;;;14.10;;
74168;SDS011;62523;53.336;83.690;2024-02-28T03:21:58;36.93;;;18.93;;
74168;SDS011;62523;53.336;83.690;2024-02-28T03:26:59;36.10;;;15.93;;
74168;SDS011;62523;53.336;83.690;2024-02-28T03:32:00;32.67;;;15.98;;
74168;SDS011;62523;53.336;83.690;2024-02-28T03:37:02;30.90;;;15.35;;
74168;SDS011;62523;53.336;83.690;2024-02-28T03:42:03;25.37;;;14.13;;
74168;SDS011;62523;53.336;83.690;2024-02-28T03:47:04;36.23;;;15.43;;
74168;SDS011;62523;53.336;83.690;2024-02-28T03:52:05;33.30;;;15.90;;
74168;SDS011;62523;53.336;83.690;2024-02-28T03:57:06;27.30;;;12.90;;
74168;SDS011;62523;53.336;83.690;2024-02-28T04:02:08;27.30;;;13.57;;
74168;SDS011;62523;53.336;83.690;2024-02-28T04:07:09;37.97;;;15.10;;
74168;SDS011;62523;53.336;83.690;2024-02-28T04:12:10;42.37;;;14.10;;
74168;SDS011;62523;53.336;83.690;2024-02-28T04:17:12;32.72;;;14.85;;
74168;SDS011;62523;53.336;83.690;2024-02-28T04:22:13;22.77;;;10.47;;
74168;SDS011;62523;53.336;83.690;2024-02-28T04:27:14;30.30;;;13.00;;
74168;SDS011;62523;53.336;83.690;2024-02-28T04:32:16;29.15;;;12.30;;
74168;SDS011;62523;53.336;83.690;2024-02-28T04:37:17;20.70;;;10.27;;
74168;SDS011;62523;53.336;83.690;2024-02-28T04:42:18;24.57;;;13.27;;
74168;SDS011;62523;53.336;83.690;2024-02-28T04:47:19;28.07;;;12.40;;
74168;SDS011;62523;53.336;83.690;2024-02-28T04:52:20;22.35;;;10.90;;
74168;SDS011;62523;53.336;83.690;2024-02-28T04:57:22;21.30;;;10.13;;
74168;SDS011;62523;53.336;83.690;2024-02-28T05:02:23;25.38;;;10.90;;
74168;SDS011;62523;53.336;83.690;2024-02-28T05:07:26;28.75;;;12.00;;
74168;SDS011;62523;53.336;83.690;2024-02-28T05:12:27;17.80;;;8.80;;
74168;SDS011;62523;53.336;83.690;2024-02-28T05:17:28;24.90;;;9.55;;
74168;SDS011;62523;53.336;83.690;2024-02-28T05:22:29;25.27;;;10.97;;
74168;SDS011;62523;53.336;83.690;2024-02-28T05:27:31;22.17;;;10.80;;
74168;SDS011;62523;53.336;83.690;2024-02-28T05:32:32;24.53;;;9.07;;
74168;SDS011;62523;53.336;83.690;2024-02-28T05:37:33;26.37;;;10.83;;
74168;SDS011;62523;53.336;83.690;2024-02-28T05:42:35;13.73;;;8.75;;
74168;SDS011;62523;53.336;83.690;2024-02-28T05:47:36;29.67;;;10.73;;
74168;SDS011;62523;53.336;83.690;2024-02-28T05:52:37;25.27;;;9.32;;
74168;SDS011;62523;53.336;83.690;2024-02-28T05:57:38;24.85;;;10.23;;
74168;SDS011;62523;53.336;83.690;2024-02-28T06:02:39;16.97;;;7.90;;
74168;SDS011;62523;53.336;83.690;2024-02-28T06:07:41;15.85;;;6.63;;
74168;SDS011;62523;53.336;83.690;2024-02-28T06:12:42;15.43;;;4.37;;
74168;SDS011;62523;53.336;83.690;2024-02-28T06:17:43;14.23;;;5.30;;
74168;SDS011;62523;53.336;83.690;2024-02-28T06:22:44;9.23;;;5.47;;
74168;SDS011;62523;53.336;83.690;2024-02-28T06:27:45;14.57;;;6.13;;
74168;SDS011;62523;53.336;83.690;2024-02-28T06:32:46;13.33;;;6.27;;
74168;SDS011;62523;53.336;83.690;2024-02-28T06:37:48;31.57;;;7.10;;
74168;SDS011;62523;53.336;83.690;2024-02-28T06:42:50;16.40;;;7.07;;
74168;SDS011;62523;53.336;83.690;2024-02-28T06:47:51;15.13;;;6.67;;
74168;SDS011;62523;53.336;83.690;2024-02-28T06:52:52;15.83;;;5.83;;
74168;SDS011;62523;53.336;83.690;2024-02-28T06:57:54;17.05;;;6.90;;
74168;SDS011;62523;53.336;83.690;2024-02-28T07:02:55;22.33;;;5.40;;
74168;SDS011;62523;53.336;83.690;2024-02-28T07:07:56;16.85;;;5.25;;
74168;SDS011;62523;53.336;83.690;2024-02-28T07:12:57;19.03;;;6.83;;
74168;SDS011;62523;53.336;83.690;2024-02-28T07:17:58;6.90;;;4.37;;
74168;SDS011;62523;53.336;83.690;2024-02-28T07:23:00;13.97;;;6.40;;
74168;SDS011;62523;53.336;83.690;2024-02-28T07:28:01;9.47;;;5.53;;
74168;SDS011;62523;53.336;83.690;2024-02-28T07:33:04;11.15;;;5.70;;
74168;SDS011;62523;53.336;83.690;2024-02-28T07:38:05;11.52;;;6.05;;
74168;SDS011;62523;53.336;83.690;2024-02-28T07:43:07;8.00;;;5.17;;
74168;SDS011;62523;53.336;83.690;2024-02-28T07:48:08;12.60;;;4.87;;
74168;SDS011;62523;53.336;83.690;2024-02-28T07:53:09;16.73;;;7.23;;
74168;SDS011;62523;53.336;83.690;2024-02-28T07:58:10;19.30;;;6.57;;
74168;SDS011;62523;53.336;83.690;2024-02-28T08:03:11;28.92;;;7.63;;
74168;SDS011;62523;53.336;83.690;2024-02-28T08:08:12;20.67;;;7.47;;
74168;SDS011;62523;53.336;83.690;2024-02-28T08:13:13;9.43;;;5.87;;
74168;SDS011;62523;53.336;83.690;2024-02-28T08:18:15;13.43;;;5.87;;
74168;SDS011;62523;53.336;83.690;2024-02-28T08:23:16;18.67;;;6.03;;
74168;SDS011;62523;53.336;83.690;2024-02-28T08:28:17;18.37;;;8.10;;
74168;SDS011;62523;53.336;83.690;2024-02-28T08:33:18;35.30;;;8.13;;
74168;SDS011;62523;53.336;83.690;2024-02-28T08:38:19;12.55;;;5.30;;
74168;SDS011;62523;53.336;83.690;2024-02-28T08:43:20;14.73;;;6.50;;
74168;SDS011;62523;53.336;83.690;2024-02-28T08:48:21;14.83;;;7.10;;
74168;SDS011;62523;53.336;83.690;2024-02-28T08:53:23;11.45;;;5.43;;
74168;SDS011;62523;53.336;83.690;2024-02-28T08:58:24;19.27;;;6.97;;
74168;SDS011;62523;53.336;83.690;2024-02-28T09:03:26;14.55;;;5.78;;
74168;SDS011;62523;53.336;83.690;2024-02-28T09:08:27;13.95;;;5.32;;
74168;SDS011;62523;53.336;83.690;2024-02-28T09:13:28;14.88;;;4.80;;
74168;SDS011;62523;53.336;83.690;2024-02-28T09:18:31;17.45;;;5.72;;
74168;SDS011;62523;53.336;83.690;2024-02-28T09:23:32;14.03;;;5.37;;
74168;SDS011;62523;53.336;83.690;2024-02-28T09:28:33;22.53;;;10.53;;
74168;SDS011;62523;53.336;83.690;2024-02-28T09:38:35;9.23;;;5.25;;
74168;SDS011;62523;53.336;83.690;2024-02-28T09:43:40;12.68;;;7.55;;
74168;SDS011;62523;53.336;83.690;2024-02-28T09:48:41;18.95;;;6.65;;
74168;SDS011;62523;53.336;83.690;2024-02-28T09:53:42;11.63;;;5.50;;
74168;SDS011;62523;53.336;83.690;2024-02-28T09:58:43;15.93;;;6.37;;
74168;SDS011;62523;53.336;83.690;2024-02-28T10:03:45;19.97;;;7.13;;
74168;SDS011;62523;53.336;83.690;2024-02-28T10:08:46;21.63;;;6.78;;
74168;SDS011;62523;53.336;83.690;2024-02-28T10:13:50;28.13;;;8.10;;
74168;SDS011;62523;53.336;83.690;2024-02-28T10:18:51;24.90;;;9.48;;
74168;SDS011;62523;53.336;83.690;2024-02-28T10:23:52;35.17;;;8.67;;
74168;SDS011;62523;53.336;83.690;2024-02-28T10:28:53;23.83;;;9.80;;
74168;SDS011;62523;53.336;83.690;2024-02-28T10:33:54;23.93;;;10.37;;
74168;SDS011;62523;53.336;83.690;2024-02-28T10:38:55;20.37;;;9.53;;
74168;SDS011;62523;53.336;83.690;2024-02-28T10:43:57;25.17;;;9.07;;
74168;SDS011;62523;53.336;83.690;2024-02-28T10:48:58;22.27;;;8.23;;
74168;SDS011;62523;53.336;83.690;2024-02-28T10:59:01;28.33;;;9.87;;
74168;SDS011;62523;53.336;83.690;2024-02-28T11:04:02;16.87;;;7.13;;
74168;SDS011;62523;53.336;83.690;2024-02-28T11:09:04;28.05;;;10.80;;
74168;SDS011;62523;53.336;83.690;2024-02-28T11:14:05;16.90;;;8.60;;
74168;SDS011;62523;53.336;83.690;2024-02-28T11:19:06;19.90;;;8.93;;
74168;SDS011;62523;53.336;83.690;2024-02-28T11:24:08;28.23;;;9.95;;
74168;SDS011;62523;53.336;83.690;2024-02-28T11:29:13;51.13;;;11.57;;
74168;SDS011;62523;53.336;83.690;2024-02-28T11:34:14;35.77;;;10.40;;
74168;SDS011;62523;53.336;83.690;2024-02-28T11:39:19;23.80;;;10.17;;
74168;SDS011;62523;53.336;83.690;2024-02-28T11:44:21;20.05;;;7.50;;
74168;SDS011;62523;53.336;83.690;2024-02-28T11:49:23;26.33;;;10.67;;
74168;SDS011;62523;53.336;83.690;2024-02-28T11:54:24;24.38;;;10.82;;
74168;SDS011;62523;53.336;83.690;2024-02-28T11:59:25;26.92;;;9.63;;
74168;SDS011;62523;53.336;83.690;2024-02-28T12:04:27;19.27;;;10.35;;
74168;SDS011;62523;53.336;83.690;2024-02-28T12:09:29;27.50;;;10.52;;
74168;SDS011;62523;53.336;83.690;2024-02-28T12:14:37;23.48;;;8.65;;
74168;SDS011;62523;53.336;83.690;2024-02-28T12:19:42;16.08;;;7.85;;
74168;SDS011;62523;53.336;83.690;2024-02-28T12:24:43;18.07;;;7.10;;
74168;SDS011;62523;53.336;83.690;2024-02-28T12:29:45;27.92;;;8.32;;
74168;SDS011;62523;53.336;83.690;2024-02-28T12:34:46;15.17;;;7.33;;
74168;SDS011;62523;53.336;83.690;2024-02-28T12:39:47;18.93;;;8.83;;
74168;SDS011;62523;53.336;83.690;2024-02-28T12:44:49;17.23;;;7.80;;
74168;SDS011;62523;53.336;83.690;2024-02-28T12:49:50;22.60;;;8.60;;
74168;SDS011;62523;53.336;83.690;2024-02-28T12:54:51;25.10;;;9.20;;
74168;SDS011;62523;53.336;83.690;2024-02-28T12:59:52;10.63;;;6.57;;
74168;SDS011;62523;53.336;83.690;2024-02-28T13:04:53;23.13;;;9.67;;
74168;SDS011;62523;53.336;83.690;2024-02-28T13:09:55;17.77;;;8.10;;
74168;SDS011;62523;53.336;83.690;2024-02-28T13:14:56;25.55;;;9.70;;
74168;SDS011;62523;53.336;83.690;2024-02-28T13:19:57;22.02;;;8.00;;
74168;SDS011;62523;53.336;83.690;2024-02-28T13:24:58;27.03;;;8.97;;
74168;SDS011;62523;53.336;83.690;2024-02-28T13:30:00;9.38;;;5.40;;
74168;SDS011;62523;53.336;83.690;2024-02-28T13:35:01;21.13;;;7.63;;
74168;SDS011;62523;53.336;83.690;2024-02-28T13:40:02;13.83;;;5.80;;
74168;SDS011;62523;53.336;83.690;2024-02-28T13:45:05;19.63;;;7.47;;
74168;SDS011;62523;53.336;83.690;2024-02-28T13:50:08;16.35;;;7.28;;
74168;SDS011;62523;53.336;83.690;2024-02-28T13:55:10;14.65;;;8.15;;
74168;SDS011;62523;53.336;83.690;2024-02-28T14:00:11;15.53;;;7.10;;
74168;SDS011;62523;53.336;83.690;2024-02-28T14:05:14;20.58;;;8.23;;
74168;SDS011;62523;53.336;83.690;2024-02-28T14:10:15;30.17;;;9.33;;
74168;SDS011;62523;53.336;83.690;2024-02-28T14:15:16;13.43;;;6.33;;
74168;SDS011;62523;53.336;83.690;2024-02-28T14:20:17;29.40;;;8.80;;
74168;SDS011;62523;53.336;83.690;2024-02-28T14:25:19;18.55;;;7.30;;
74168;SDS011;62523;53.336;83.690;2024-02-28T14:30:23;17.48;;;7.22;;
74168;SDS011;62523;53.336;83.690;2024-02-28T14:35:25;19.80;;;7.53;;
74168;SDS011;62523;53.336;83.690;2024-02-28T14:40:26;21.88;;;5.90;;
74168;SDS011;62523;53.336;83.690;2024-02-28T14:50:29;10.68;;;5.45;;
74168;SDS011;62523;53.336;83.690;2024-02-28T14:55:30;13.10;;;5.13;;
74168;SDS011;62523;53.336;83.690;2024-02-28T15:00:31;13.40;;;6.87;;
74168;SDS011;62523;53.336;83.690;2024-02-28T15:05:33;16.20;;;6.17;;
74168;SDS011;62523;53.336;83.690;2024-02-28T15:10:34;19.05;;;6.63;;
74168;SDS011;62523;53.336;83.690;2024-02-28T15:15:35;16.57;;;4.10;;
74168;SDS011;62523;53.336;83.690;2024-02-28T15:20:36;10.37;;;6.57;;
74168;SDS011;62523;53.336;83.690;2024-02-28T15:25:38;12.02;;;4.35;;
74168;SDS011;62523;53.336;83.690;2024-02-28T15:30:39;13.00;;;4.70;;
74168;SDS011;62523;53.336;83.690;2024-02-28T15:35:41;10.68;;;5.85;;
74168;SDS011;62523;53.336;83.690;2024-02-28T15:40:42;17.37;;;7.17;;
74168;SDS011;62523;53.336;83.690;2024-02-28T15:45:43;11.77;;;6.07;;
74168;SDS011;62523;53.336;83.690;2024-02-28T15:50:44;18.10;;;6.63;;
74168;SDS011;62523;53.336;83.690;2024-02-28T15:55:48;34.35;;;18.83;;
74168;SDS011;62523;53.336;83.690;2024-02-28T16:05:51;26.35;;;17.10;;
74168;SDS011;62523;53.336;83.690;2024-02-28T16:11:05;31.20;;;17.77;;
74168;SDS011;62523;53.336;83.690;2024-02-28T16:16:07;26.04;;;16.14;;
74168;SDS011;62523;53.336;83.690;2024-02-28T16:21:08;22.58;;;12.88;;
74168;SDS011;62523;53.336;83.690;2024-02-28T16:26:10;16.23;;;9.46;;
74168;SDS011;62523;53.336;83.690;2024-02-28T16:36:12;23.03;;;14.63;;
74168;SDS011;62523;53.336;83.690;2024-02-28T16:41:14;26.67;;;14.43;;
74168;SDS011;62523;53.336;83.690;2024-02-28T16:46:15;37.17;;;17.03;;
74168;SDS011;62523;53.336;83.690;2024-02-28T16:51:16;27.80;;;14.30;;
74168;SDS011;62523;53.336;83.690;2024-02-28T16:56:18;33.90;;;15.73;;
74168;SDS011;62523;53.336;83.690;2024-02-28T17:01:19;45.85;;;20.35;;
74168;SDS011;62523;53.336;83.690;2024-02-28T17:06:23;57.55;;;22.42;;
74168;SDS011;62523;53.336;83.690;2024-02-28T17:11:24;46.72;;;24.08;;
74168;SDS011;62523;53.336;83.690;2024-02-28T17:16:25;40.77;;;22.57;;
74168;SDS011;62523;53.336;83.690;2024-02-28T17:21:26;47.97;;;23.80;;
74168;SDS011;62523;53.336;83.690;2024-02-28T17:26:27;39.23;;;19.93;;
74168;SDS011;62523;53.336;83.690;2024-02-28T17:31:29;37.70;;;23.13;;
74168;SDS011;62523;53.336;83.690;2024-02-28T17:36:30;40.67;;;21.00;;
74168;SDS011;62523;53.336;83.690;2024-02-28T17:41:31;39.73;;;18.37;;
74168;SDS011;62523;53.336;83.690;2024-02-28T17:46:32;28.00;;;17.27;;
74168;SDS011;62523;53.336;83.690;2024-02-28T17:51:33;32.25;;;18.40;;
74168;SDS011;62523;53.336;83.690;2024-02-28T17:56:36;30.55;;;15.23;;
74168;SDS011;62523;53.336;83.690;2024-02-28T18:01:39;26.23;;;14.60;;
74168;SDS011;62523;53.336;83.690;2024-02-28T18:06:40;29.00;;;12.20;;
74168;SDS011;62523;53.336;83.690;2024-02-28T18:11:41;27.60;;;15.90;;
74168;SDS011;62523;53.336;83.690;2024-02-28T18:16:42;39.92;;;16.50;;
74168;SDS011;62523;53.336;83.690;2024-02-28T18:21:43;29.00;;;16.73;;
74168;SDS011;62523;53.336;83.690;2024-02-28T18:26:44;32.33;;;17.50;;
74168;SDS011;62523;53.336;83.690;2024-02-28T18:31:46;41.00;;;17.53;;
74168;SDS011;62523;53.336;83.690;2024-02-28T18:36:47;29.23;;;13.40;;
74168;SDS011;62523;53.336;83.690;2024-02-28T18:41:48;26.27;;;14.63;;
74168;SDS011;62523;53.336;83.690;2024-02-28T18:46:49;30.40;;;13.77;;
74168;SDS011;62523;53.336;83.690;2024-02-28T18:51:50;26.67;;;14.37;;
74168;SDS011;62523;53.336;83.690;2024-02-28T18:56:51;24.03;;;13.13;;
74168;SDS011;62523;53.336;83.690;2024-02-28T19:01:54;27.80;;;13.32;;
74168;SDS011;62523;53.336;83.690;2024-02-28T19:06:56;24.23;;;13.50;;
74168;SDS011;62523;53.336;83.690;2024-02-28T19:11:57;25.17;;;13.17;;
74168;SDS011;62523;53.336;83.690;2024-02-28T19:21:59;26.67;;;12.00;;
74168;SDS011;62523;53.336;83.690;2024-02-28T19:27:00;25.60;;;13.07;;
74168;SDS011;62523;53.336;83.690;2024-02-28T19:32:01;27.70;;;12.93;;
74168;SDS011;62523;53.336;83.690;2024-02-28T19:37:03;28.13;;;13.77;;
74168;SDS011;62523;53.336;83.690;2024-02-28T19:42:04;22.52;;;13.63;;
74168;SDS011;62523;53.336;83.690;2024-02-28T19:47:05;17.27;;;11.90;;
74168;SDS011;62523;53.336;83.690;2024-02-28T19:57:07;18.25;;;10.70;;
74168;SDS011;62523;53.336;83.690;2024-02-28T20:07:10;18.38;;;11.32;;
74168;SDS011;62523;53.336;83.690;2024-02-28T20:12:11;17.50;;;9.93;;
74168;SDS011;62523;53.336;83.690;2024-02-28T20:17:13;17.87;;;9.30;;
74168;SDS011;62523;53.336;83.690;2024-02-28T20:22:15;17.40;;;8.75;;
74168;SDS011;62523;53.336;83.690;2024-02-28T20:27:17;18.23;;;8.03;;
74168;SDS011;62523;53.336;83.690;2024-02-28T20:32:18;20.57;;;10.00;;
74168;SDS011;62523;53.336;83.690;2024-02-28T20:37:19;14.43;;;8.63;;
74168;SDS011;62523;53.336;83.690;2024-02-28T20:42:22;16.27;;;9.48;;
74168;SDS011;62523;53.336;83.690;2024-02-28T20:47:23;11.87;;;8.93;;
74168;SDS011;62523;53.336;83.690;2024-02-28T20:52:24;20.43;;;9.13;;
74168;SDS011;62523;53.336;83.690;2024-02-28T20:57:28;17.73;;;9.30;;
74168;SDS011;62523;53.336;83.690;2024-02-28T21:02:29;19.13;;;9.53;;
74168;SDS011;62523;53.336;83.690;2024-02-28T21:07:31;17.87;;;8.47;;
74168;SDS011;62523;53.336;83.690;2024-02-28T21:12:32;14.98;;;8.05;;
74168;SDS011;62523;53.336;83.690;2024-02-28T21:17:34;10.52;;;7.82;;
74168;SDS011;62523;53.336;83.690;2024-02-28T21:22:35;15.13;;;6.85;;
74168;SDS011;62523;53.336;83.690;2024-02-28T21:27:37;14.40;;;8.02;;
74168;SDS011;62523;53.336;83.690;2024-02-28T21:32:38;14.47;;;7.03;;
74168;SDS011;62523;53.336;83.690;2024-02-28T21:37:41;21.55;;;9.07;;
74168;SDS011;62523;53.336;83.690;2024-02-28T21:42:43;11.55;;;7.85;;
74168;SDS011;62523;53.336;83.690;2024-02-28T21:47:44;19.40;;;8.33;;
74168;SDS011;62523;53.336;83.690;2024-02-28T21:52:45;11.60;;;7.57;;
74168;SDS011;62523;53.336;83.690;2024-02-28T22:02:47;13.15;;;6.35;;
74168;SDS011;62523;53.336;83.690;2024-02-28T22:12:49;17.33;;;8.50;;
74168;SDS011;62523;53.336;83.690;2024-02-28T22:17:51;15.52;;;7.45;;
74168;SDS011;62523;53.336;83.690;2024-02-28T22:22:54;21.77;;;7.93;;
74168;SDS011;62523;53.336;83.690;2024-02-28T22:27:55;16.15;;;7.28;;
74168;SDS011;62523;53.336;83.690;2024-02-28T22:32:56;11.73;;;7.23;;
74168;SDS011;62523;53.336;83.690;2024-02-28T22:42:58;19.45;;;7.22;;
74168;SDS011;62523;53.336;83.690;2024-02-28T22:47:59;22.87;;;9.40;;
74168;SDS011;62523;53.336;83.690;2024-02-28T22:53:00;21.43;;;7.57;;
74168;SDS011;62523;53.336;83.690;2024-02-28T22:58:01;13.03;;;8.27;;
74168;SDS011;62523;53.336;83.690;2024-02-28T23:03:04;25.80;;;11.47;;
74168;SDS011;62523;53.336;83.690;2024-02-28T23:08:05;31.75;;;17.52;;
74168;SDS011;62523;53.336;83.690;2024-02-28T23:18:08;15.55;;;9.30;;
74168;SDS011;62523;53.336;83.690;2024-02-28T23:23:09;18.23;;;9.43;;
74168;SDS011;62523;53.336;83.690;2024-02-28T23:28:10;15.70;;;7.97;;
74168;SDS011;62523;53.336;83.690;2024-02-28T23:33:11;16.93;;;7.40;;
74168;SDS011;62523;53.336;83.690;2024-02-28T23:38:12;18.23;;;9.80;;
74168;SDS011;62523;53.336;83.690;2024-02-28T23:43:13;21.63;;;10.73;;
74168;SDS011;62523;53.336;83.690;2024-02-28T23:48:14;22.17;;;9.33;;
74168;SDS011;62523;53.336;83.690;2024-02-28T23:53:15;14.60;;;8.73;;
74168;SDS011;62523;53.336;83.690;2024-02-28T23:58:17;21.90;;;7.60;;
